Terminal Aerodrome Forecast
Issued by NWS

Home | Current Version | Previous Version | Graphics & Text | Print | Product List | Glossary On
Versions: 1 2 3 4 5 6 7 8 9 10 11 12 13 14 15 16 17 18 19 20 21 22 23 24 25 26 27 28 29 30 31 32 33 34
000
FTUS43 KLOT 172100 AAB
TAFDPA
TAF AMD
KDPA 172151Z 1722/1818 21005KT P6SM FEW050
     FM180100 VRB02KT P6SM MIFG SKC
     FM181400 04006KT P6SM BKN012 OVC050=

USA.gov is the U.S. government's official web portal to all federal, state and local government web resources and services.